createdAt,value
2022-11-04T00:02:55.213Z,1.6
2022-11-04T00:08:45.991Z,1.3
2022-11-04T09:16:38.706Z,11.7
2022-11-04T09:22:24.587Z,8.8
2022-11-04T10:26:13.880Z,10.5
2022-11-04T10:33:16.572Z,7.8
2022-11-04T10:39:19.250Z,11.2
2022-11-04T10:45:40.381Z,10.4
2022-11-04T11:04:57.291Z,9.2
2022-11-04T11:10:49.592Z,8.8
2022-11-04T11:17:08.712Z,10
2022-11-04T11:24:08.730Z,8
2022-11-04T11:29:59.076Z,10.3
2022-11-04T11:35:51.074Z,9.6
2022-11-04T11:41:55.074Z,9.2
2022-11-04T11:47:43.728Z,6.5
2022-11-04T11:53:34.222Z,7.1
2022-11-04T12:00:43.071Z,7.5
2022-11-04T12:14:57.570Z,7.7
2022-11-04T12:20:47.383Z,6.9
2022-11-04T12:26:37.441Z,6.9
2022-11-04T12:32:27.327Z,7.9
2022-11-04T12:38:17.303Z,9.4
2022-11-04T12:44:07.095Z,7.6
2022-11-04T12:49:57.052Z,7.8
2022-11-04T12:55:48.564Z,6.7
2022-11-04T13:01:40.547Z,7.5
2022-11-04T13:07:49.424Z,7
2022-11-04T13:13:38.319Z,4.8
2022-11-04T13:19:27.435Z,5.7
2022-11-04T13:25:15.499Z,6.2
2022-11-04T13:31:05.460Z,3.8
2022-11-04T13:36:56.104Z,4.2
2022-11-04T13:42:45.951Z,4.2
2022-11-04T13:48:37.802Z,5.6
2022-11-04T13:54:28.027Z,8.3
2022-11-04T14:00:18.693Z,3.4
2022-11-04T14:06:08.648Z,4.7
2022-11-04T14:11:59.132Z,5
2022-11-04T14:17:48.872Z,5.4
2022-11-04T14:23:39.010Z,3.7
2022-11-04T14:29:29.877Z,4.5
2022-11-04T14:35:19.638Z,4.2
2022-11-04T14:41:09.038Z,3.6
2022-11-04T14:47:03.273Z,5.1
2022-11-04T14:55:16.666Z,4.2
2022-11-04T15:01:04.701Z,5.6
2022-11-04T15:07:02.444Z,6.4
2022-11-04T15:12:53.991Z,4.4
2022-11-04T15:18:44.962Z,4.9
2022-11-04T15:24:34.512Z,5.9
2022-11-04T15:30:25.212Z,7.5
2022-11-04T15:36:16.212Z,9.1
2022-11-04T15:42:06.556Z,7.6
2022-11-04T15:47:57.799Z,10.4
2022-11-04T15:53:48.298Z,8.6
2022-11-04T15:59:38.348Z,9.8
2022-11-04T16:05:28.783Z,9.4
2022-11-04T16:11:20.724Z,9
2022-11-04T16:17:11.463Z,9.8
2022-11-04T16:23:02.870Z,8.2
2022-11-04T16:28:54.001Z,12.7
2022-11-04T16:34:43.955Z,9
2022-11-04T16:40:34.139Z,9.9
2022-11-04T16:46:23.876Z,12.6
2022-11-04T16:52:14.150Z,8.8
2022-11-04T16:58:04.295Z,9.3
2022-11-04T17:03:53.099Z,9.4
2022-11-04T17:09:43.175Z,9.8
2022-11-04T17:15:31.591Z,9
2022-11-04T17:21:19.746Z,10.3
2022-11-04T17:27:07.697Z,10.8
2022-11-04T17:32:56.674Z,8.9
2022-11-04T17:38:45.256Z,10.3
2022-11-04T17:44:33.727Z,11.4
2022-11-04T17:50:24.158Z,14.8
2022-11-04T17:56:14.378Z,14.2
2022-11-04T18:02:06.275Z,18.9
2022-11-04T18:07:55.653Z,33
2022-11-04T18:13:45.447Z,19.4
2022-11-04T18:19:35.302Z,18.6
2022-11-04T18:25:25.400Z,23.8
2022-11-04T18:31:15.889Z,22.7
2022-11-04T18:37:08.669Z,23.8
2022-11-04T18:42:56.948Z,23.4
2022-11-04T18:48:47.826Z,30.9
2022-11-04T18:54:38.159Z,34.4
2022-11-04T19:00:28.158Z,29.8
2022-11-04T19:06:19.507Z,29.1
2022-11-04T19:12:10.450Z,33.5
2022-11-04T19:18:01.098Z,31.9
2022-11-04T19:23:51.578Z,28.8
2022-11-04T19:29:41.673Z,32.4
2022-11-04T19:35:32.292Z,34.4
2022-11-04T19:41:22.430Z,40.1
2022-11-04T19:47:14.424Z,39.4
2022-11-04T19:53:06.598Z,38.9
2022-11-04T19:59:00.459Z,36.7
2022-11-04T20:04:54.980Z,32
2022-11-04T20:10:44.800Z,36.7
2022-11-04T20:16:34.515Z,39.3
2022-11-04T20:22:24.435Z,37.7
2022-11-04T20:28:16.718Z,41.7
2022-11-04T20:34:08.380Z,37.8
2022-11-04T20:39:58.396Z,40.6
2022-11-04T20:45:55.503Z,38.1
2022-11-04T20:51:48.873Z,41.2
2022-11-04T20:57:44.754Z,46.2
2022-11-04T21:03:35.121Z,46.6
2022-11-04T21:09:25.168Z,43.8
2022-11-04T21:15:15.843Z,48.8
2022-11-04T21:21:06.347Z,54.1
2022-11-04T21:26:56.365Z,52.8
2022-11-04T21:32:45.760Z,54.7
2022-11-04T21:38:36.366Z,55.7
2022-11-04T21:44:27.030Z,57.6
2022-11-04T21:50:24.479Z,63.1
2022-11-04T21:56:13.966Z,63.6
2022-11-04T22:02:07.359Z,65.6
2022-11-04T22:07:58.346Z,68.6
2022-11-04T22:13:48.780Z,71.1
2022-11-04T22:19:37.885Z,60.8
2022-11-04T22:25:27.601Z,62.9
2022-11-04T22:31:17.586Z,63.4
2022-11-04T22:37:07.377Z,75.6
2022-11-04T22:42:56.812Z,69.5
2022-11-04T22:48:46.931Z,69.2
2022-11-04T22:54:39.839Z,66.2
2022-11-04T23:00:50.054Z,73.6
2022-11-04T23:06:42.643Z,80.4
2022-11-04T23:18:36.216Z,78
2022-11-04T23:24:32.726Z,74.7
2022-11-04T23:30:26.512Z,61.9
2022-11-04T23:36:18.343Z,61.6
2022-11-04T23:42:11.041Z,53.9
2022-11-04T23:48:01.998Z,40
2022-11-04T23:53:54.260Z,38.1
2022-11-04T23:59:45.113Z,37.2
